Time;durP1;ratioP1;P1;durP2;ratioP2;P2;SDS_P1;SDS_P2;PMS_P1;PMS_P2;Temp;Humidity;BMP_temperature;BMP_pressure;BME280_temperature;BME280_humidity;BME280_pressure;Samples;Min_cycle;Max_cycle;Signal;HPM_P1;HPM_P2
2022/03/08 00:00:50;;;;;;;;;;;;;;;2.55;59.32;100228.69;4412842;32;19981;-86
2022/03/08 00:03:15;;;;;;;;;;;;;;;2.62;59.33;100234.78;4425127;32;24338;-87
2022/03/08 00:05:40;;;;;;;;;;;;;;;2.51;59.32;100244.09;4426594;32;20029;-87
2022/03/08 00:08:06;;;;;;;;;;;;;;;2.67;59.33;100243.38;4412984;32;20065;-87
2022/03/08 00:10:31;;;;;;;;;;;;;;;2.63;59.33;100239.06;4426770;32;19981;-87
2022/03/08 00:12:56;;;;;;;;;;;;;;;2.43;59.32;100233.75;4413991;32;20013;-87
2022/03/08 00:15:24;;;;;;;;;;;;;;;2.34;59.31;100238.78;4426083;32;25693;-87
2022/03/08 00:17:49;;;;;;;;;;;;;;;2.41;59.31;100235.44;4440934;32;20039;-87
2022/03/08 00:20:15;;;;;;;;;;;;;;;2.47;59.32;100246.63;4426781;32;20033;-85
2022/03/08 00:22:40;;;;;;;;;;;;;;;2.44;59.32;100244.03;4426550;32;20026;-85
2022/03/08 00:25:05;;;;;;;;;;;;;;;2.50;59.31;100237.22;4440747;32;19973;-85
2022/03/08 00:27:31;;;;;;;;;;;;;;;2.41;59.31;100238.03;4426537;32;20345;-85
2022/03/08 00:29:56;;;;;;;;;;;;;;;2.44;59.32;100248.31;4426698;32;20013;-85
2022/03/08 00:32:21;;;;;;;;;;;;;;;2.49;59.31;100238.06;4440593;32;20017;-85
2022/03/08 00:34:46;;;;;;;;;;;;;;;2.45;59.32;100237.19;4413757;32;19985;-85
2022/03/08 00:37:12;;;;;;;;;;;;;;;2.56;59.32;100237.28;4440147;32;21814;-85
2022/03/08 00:39:37;;;;;;;;;;;;;;;2.63;59.32;100236.50;4425648;32;33371;-86
2022/03/08 00:42:02;;;;;;;;;;;;;;;2.33;59.31;100239.66;4426592;32;20258;-85
2022/03/08 00:44:27;;;;;;;;;;;;;;;2.31;59.31;100237.06;4426406;32;19980;-85
2022/03/08 00:46:53;;;;;;;;;;;;;;;2.32;59.31;100235.34;4426499;32;19989;-86
2022/03/08 00:49:18;;;;;;;;;;;;;;;2.33;59.31;100229.38;4426393;32;20015;-86
2022/03/08 00:51:43;;;;;;;;;;;;;;;2.38;59.32;100227.72;4413519;32;19977;-86
2022/03/08 00:54:08;;;;;;;;;;;;;;;2.05;59.29;100234.25;4426089;32;19993;-86
2022/03/08 00:56:34;;;;;;;;;;;;;;;2.21;59.29;100234.41;4425690;32;27181;-85
2022/03/08 00:58:59;;;;;;;;;;;;;;;2.34;59.30;100226.81;4426372;32;20000;-86
2022/03/08 01:01:24;;;;;;;;;;;;;;;2.20;59.29;100220.72;4425816;32;26292;-86
2022/03/08 01:03:49;;;;;;;;;;;;;;;2.32;59.31;100220.81;4425776;32;28506;-86
2022/03/08 01:06:14;;;;;;;;;;;;;;;2.39;59.32;100226.87;4413392;32;19994;-85
2022/03/08 01:08:40;;;;;;;;;;;;;;;2.20;59.29;100223.28;4426059;32;19992;-85
2022/03/08 01:11:05;;;;;;;;;;;;;;;2.25;59.30;100223.31;4426099;32;19981;-86
2022/03/08 01:13:31;;;;;;;;;;;;;;;2.28;59.31;100219.06;4425540;32;26157;-85
2022/03/08 01:15:56;;;;;;;;;;;;;;;2.36;59.32;100208.84;4426088;32;19977;-87
2022/03/08 01:18:21;;;;;;;;;;;;;;;2.30;59.31;100222.50;4425452;32;26857;-87
2022/03/08 01:20:46;;;;;;;;;;;;;;;2.44;59.32;100217.50;4439952;32;20005;-87
2022/03/08 01:23:12;;;;;;;;;;;;;;;2.28;59.30;100220.75;4412880;32;29061;-87
2022/03/08 01:25:40;;;;;;;;;;;;;;;2.09;59.29;100220.59;4425985;32;20306;-86
2022/03/08 01:28:06;;;;;;;;;;;;;;;2.17;59.30;100217.25;4440092;32;19996;-87
2022/03/08 01:30:31;;;;;;;;;;;;;;;2.04;59.29;100229.09;4425937;32;19977;-87
2022/03/08 01:32:56;;;;;;;;;;;;;;;2.07;59.29;100214.56;4440004;32;20001;-87
2022/03/08 01:35:21;;;;;;;;;;;;;;;1.98;59.29;100217.06;4426090;32;19977;-87
2022/03/08 01:37:47;;;;;;;;;;;;;;;1.80;59.28;100217.72;4440000;32;20273;-87
2022/03/08 01:40:15;;;;;;;;;;;;;;;1.93;59.29;100218.72;4425766;32;20015;-87
2022/03/08 01:42:41;;;;;;;;;;;;;;;1.76;59.27;100225.38;4426150;32;19978;-87
2022/03/08 01:45:06;;;;;;;;;;;;;;;1.58;59.26;100220.91;4425985;32;20031;-87
2022/03/08 01:47:32;;;;;;;;;;;;;;;1.52;59.26;100226.81;4425801;32;19982;-87
2022/03/08 01:49:57;;;;;;;;;;;;;;;1.63;59.26;100220.94;4425735;32;20228;-87
2022/03/08 01:52:22;;;;;;;;;;;;;;;1.67;59.27;100222.72;4425718;32;19969;-87
2022/03/08 01:54:48;;;;;;;;;;;;;;;1.54;59.26;100221.72;4425888;32;20052;-87
2022/03/08 01:57:13;;;;;;;;;;;;;;;1.43;59.26;100220.72;4439796;32;19978;-86
2022/03/08 01:59:38;;;;;;;;;;;;;;;1.48;59.25;100229.34;4439869;32;19993;-85
2022/03/08 02:02:22;;;;;;;;;;;;;;;1.42;59.26;100225.00;4439929;32;19966;-86
2022/03/08 02:04:48;;;;;;;;;;;;;;;1.33;59.25;100214.59;4439922;32;20001;-86
2022/03/08 02:07:13;;;;;;;;;;;;;;;1.43;59.26;100223.31;4425956;32;20004;-86
2022/03/08 02:09:38;;;;;;;;;;;;;;;1.46;59.26;100219.06;4425479;32;19969;-85
2022/03/08 02:12:04;;;;;;;;;;;;;;;1.29;59.25;100215.41;4425775;32;19993;-85
2022/03/08 02:14:29;;;;;;;;;;;;;;;1.47;59.25;100220.78;4439860;32;20292;-85
2022/03/08 02:16:55;;;;;;;;;;;;;;;1.39;59.25;100219.81;4425118;32;31844;-86
2022/03/08 02:19:20;;;;;;;;;;;;;;;1.48;59.25;100216.50;4425307;32;22965;-85
2022/03/08 02:21:45;;;;;;;;;;;;;;;1.34;59.25;100223.16;4439140;32;30375;-85
2022/03/08 02:24:10;;;;;;;;;;;;;;;1.41;59.26;100218.12;4425796;32;20034;-86
2022/03/08 02:26:36;;;;;;;;;;;;;;;1.14;59.24;100221.19;4425506;32;20322;-86
2022/03/08 02:29:01;;;;;;;;;;;;;;;1.17;59.24;100228.06;4425682;32;20025;-86
2022/03/08 02:31:26;;;;;;;;;;;;;;;1.12;59.24;100222.88;4424936;32;19997;-86
2022/03/08 02:33:52;;;;;;;;;;;;;;;1.13;59.24;100222.03;4425648;32;20020;-85
2022/03/08 02:36:17;;;;;;;;;;;;;;;1.17;59.25;100221.22;4439781;32;20243;-85
2022/03/08 02:38:42;;;;;;;;;;;;;;;1.20;59.24;100218.72;4425462;32;19973;-86
2022/03/08 02:41:08;;;;;;;;;;;;;;;1.13;59.24;100218.59;4425228;32;20037;-86
2022/03/08 02:43:33;;;;;;;;;;;;;;;1.05;59.24;100222.78;4438817;32;29824;-86
2022/03/08 02:45:58;;;;;;;;;;;;;;;1.06;59.23;100221.94;4438571;32;30337;-86
2022/03/08 02:48:27;;;;;;;;;;;;;;;1.05;59.24;100220.22;4412410;32;20000;-87
2022/03/08 02:50:52;;;;;;;;;;;;;;;0.95;59.22;100223.47;4425278;32;20026;-85
2022/03/08 02:53:17;;;;;;;;;;;;;;;0.90;59.23;100224.28;4439351;32;19997;-85
2022/03/08 02:55:42;;;;;;;;;;;;;;;0.90;59.23;100221.72;4439243;32;19978;-85
2022/03/08 02:58:08;;;;;;;;;;;;;;;1.05;59.23;100222.78;4438707;32;19973;-85
2022/03/08 03:00:33;;;;;;;;;;;;;;;0.95;59.22;100226.94;4412375;32;19997;-85
2022/03/08 03:02:58;;;;;;;;;;;;;;;0.92;59.23;100227.72;4425134;32;20311;-85
2022/03/08 03:05:23;;;;;;;;;;;;;;;0.62;59.21;100233.25;4424985;32;19981;-85
2022/03/08 03:07:49;;;;;;;;;;;;;;;0.60;59.22;100234.06;4424990;32;20333;-85
2022/03/08 03:10:15;;;;;;;;;;;;;;;0.48;59.20;100234.75;4425043;32;19970;-85
2022/03/08 03:12:40;;;;;;;;;;;;;;;0.41;59.19;100234.59;4424978;32;20004;-85
2022/03/08 03:15:06;;;;;;;;;;;;;;;0.55;59.20;100235.69;4424711;32;19982;-86
2022/03/08 03:17:32;;;;;;;;;;;;;;;0.65;59.21;100236.69;4424691;32;19974;-86
2022/03/08 03:19:57;;;;;;;;;;;;;;;0.62;59.21;100234.94;4424609;32;20282;-86
2022/03/08 03:22:22;;;;;;;;;;;;;;;0.62;59.21;100233.25;4423953;32;29706;-86
2022/03/08 03:24:47;;;;;;;;;;;;;;;0.58;59.21;100231.50;4438289;32;21265;-86
2022/03/08 03:27:12;;;;;;;;;;;;;;;0.68;59.22;100234.19;4424247;32;21140;-86
2022/03/08 03:29:38;;;;;;;;;;;;;;;0.75;59.22;100234.31;4424555;32;19984;-86
2022/03/08 03:32:03;;;;;;;;;;;;;;;0.56;59.21;100240.84;4438601;32;20000;-86
2022/03/08 03:34:28;;;;;;;;;;;;;;;0.58;59.21;100239.16;4424605;32;20037;-86
2022/03/08 03:36:54;;;;;;;;;;;;;;;0.62;59.21;100240.94;4438231;32;20370;-86
2022/03/08 03:39:19;;;;;;;;;;;;;;;0.68;59.21;100240.16;4424612;32;20349;-86
2022/03/08 03:41:44;;;;;;;;;;;;;;;0.61;59.21;100244.34;4424401;32;19999;-86
2022/03/08 03:44:10;;;;;;;;;;;;;;;0.69;59.21;100243.59;4439901;32;31203;-86
2022/03/08 03:46:36;;;;;;;;;;;;;;;0.62;59.21;100245.19;4414106;32;19977;-86
2022/03/08 03:49:01;;;;;;;;;;;;;;;0.80;59.21;100242.94;4426606;32;20113;-85
2022/03/08 03:51:26;;;;;;;;;;;;;;;0.55;59.20;100244.25;4426611;32;20078;-86
2022/03/08 03:53:51;;;;;;;;;;;;;;;0.56;59.20;100245.09;4426078;32;24675;-86
2022/03/08 03:56:16;;;;;;;;;;;;;;;0.56;59.20;100245.09;4426621;32;20013;-86
2022/03/08 03:58:42;;;;;;;;;;;;;;;0.59;59.21;100240.03;4413016;32;28814;-86
2022/03/08 04:01:07;;;;;;;;;;;;;;;0.51;59.20;100242.47;4426653;32;20318;-86
2022/03/08 04:03:32;;;;;;;;;;;;;;;0.52;59.21;100231.41;4426579;32;19978;-88
2022/03/08 04:05:57;;;;;;;;;;;;;;;0.49;59.20;100236.47;4412953;32;32111;-86
2022/03/08 04:08:23;;;;;;;;;;;;;;;0.19;59.18;100231.69;4426551;32;19996;-87
2022/03/08 04:10:48;;;;;;;;;;;;;;;0.22;59.18;100234.28;4440500;32;19973;-86
2022/03/08 04:13:14;;;;;;;;;;;;;;;0.15;59.17;100229.91;4426597;32;19997;-86
2022/03/08 04:15:39;;;;;;;;;;;;;;;0.15;59.17;100229.91;4413683;32;20330;-87
2022/03/08 04:18:04;;;;;;;;;;;;;;;0.03;59.17;100229.69;4413593;32;20295;-87
2022/03/08 04:20:29;;;;;;;;;;;;;;;0.10;59.18;100234.09;4413503;32;20012;-86
2022/03/08 04:22:55;;;;;;;;;;;;;;;0.07;59.17;100241.72;4426656;32;19985;-87
2022/03/08 04:25:20;;;;;;;;;;;;;;;0.16;59.18;100241.88;4413587;32;19969;-86
2022/03/08 04:27:46;;;;;;;;;;;;;;;-0.09;59.16;100240.56;4426428;32;19985;-86
2022/03/08 04:30:11;;;;;;;;;;;;;;;0.02;59.18;100255.28;4440458;32;20005;-84
2022/03/08 04:32:36;;;;;;;;;;;;;;;-0.03;59.17;100256.03;4440539;32;20448;-84
2022/03/08 04:35:01;;;;;;;;;;;;;;;0.06;59.17;100260.47;4426020;32;20000;-84
2022/03/08 04:37:27;;;;;;;;;;;;;;;0.23;59.19;100245.38;4440451;32;19974;-84
2022/03/08 04:39:52;;;;;;;;;;;;;;;0.05;59.17;100243.38;4440035;32;19982;-83
2022/03/08 04:42:17;;;;;;;;;;;;;;;0.02;59.18;100243.34;4440354;32;20019;-84
2022/03/08 04:44:42;;;;;;;;;;;;;;;0.01;59.17;100245.88;4426204;32;20380;-84
2022/03/08 04:47:08;;;;;;;;;;;;;;;0.01;59.18;100241.59;4440348;32;19993;-84
2022/03/08 04:49:33;;;;;;;;;;;;;;;-0.01;59.17;100238.13;4439705;32;25899;-84
2022/03/08 04:51:58;;;;;;;;;;;;;;;-0.10;59.16;100249.06;4413473;32;19981;-84
2022/03/08 04:54:23;;;;;;;;;;;;;;;-0.17;59.16;100249.78;4439147;32;32795;-85
2022/03/08 04:56:48;;;;;;;;;;;;;;;-0.14;59.17;100241.31;4440196;32;20026;-84
2022/03/08 04:59:14;;;;;;;;;;;;;;;-0.24;59.16;100249.63;4412463;32;32984;-85
2022/03/08 05:01:39;;;;;;;;;;;;;;;-0.12;59.17;100237.09;4439936;32;19997;-83
2022/03/08 05:04:04;;;;;;;;;;;;;;;-0.22;59.15;100240.31;4439467;32;29130;-84
2022/03/08 05:06:30;;;;;;;;;;;;;;;-0.21;59.16;100248.03;4439235;32;27892;-85
2022/03/08 05:08:56;;;;;;;;;;;;;;;-0.19;59.16;100238.69;4440249;32;19985;-84
2022/03/08 05:11:21;;;;;;;;;;;;;;;-0.11;59.17;100236.25;4425923;32;20038;-84
2022/03/08 05:13:46;;;;;;;;;;;;;;;-0.12;59.17;100232.81;4425604;32;26252;-85
2022/03/08 05:16:12;;;;;;;;;;;;;;;-0.07;59.17;100236.31;4413019;32;20274;-83
2022/03/08 05:18:37;;;;;;;;;;;;;;;-0.09;59.16;100235.44;4440145;32;20130;-86
2022/03/08 05:21:02;;;;;;;;;;;;;;;-0.10;59.16;100235.41;4439491;32;26422;-86
2022/03/08 05:23:27;;;;;;;;;;;;;;;-0.17;59.16;100231.88;4439466;32;25963;-85
2022/03/08 05:25:53;;;;;;;;;;;;;;;-0.26;59.16;100235.94;4425815;32;19977;-85
2022/03/08 05:28:18;;;;;;;;;;;;;;;-0.25;59.16;100235.97;4440083;32;19977;-84
2022/03/08 05:30:44;;;;;;;;;;;;;;;-0.30;59.15;100240.16;4439903;32;19993;-87
2022/03/08 05:33:09;;;;;;;;;;;;;;;-0.35;59.15;100242.62;4426156;32;19981;-86
2022/03/08 05:35:34;;;;;;;;;;;;;;;-0.35;59.15;100237.50;4425253;32;29471;-85
2022/03/08 05:38:00;;;;;;;;;;;;;;;-0.46;59.14;100243.25;4425806;32;20003;-86
2022/03/08 05:40:26;;;;;;;;;;;;;;;-0.53;59.14;100247.34;4425941;32;19996;-85
2022/03/08 05:42:51;;;;;;;;;;;;;;;-0.49;59.15;100245.72;4426309;32;19982;-85
2022/03/08 05:45:16;;;;;;;;;;;;;;;-0.57;59.14;100254.94;4425528;32;26679;-85
2022/03/08 05:47:41;;;;;;;;;;;;;;;-0.62;59.13;100248.03;4425680;32;20028;-85
2022/03/08 05:50:07;;;;;;;;;;;;;;;-0.43;59.15;100251.00;4426006;32;20012;-83
2022/03/08 05:52:32;;;;;;;;;;;;;;;-0.52;59.14;100253.34;4426221;32;19991;-84
2022/03/08 05:54:57;;;;;;;;;;;;;;;-0.51;59.14;100249.94;4412883;32;20246;-86
2022/03/08 05:57:22;;;;;;;;;;;;;;;-0.45;59.14;100250.09;4425922;32;19986;-86
2022/03/08 05:59:49;;;;;;;;;;;;;;;-0.66;59.13;100251.38;4426103;32;20000;-85
2022/03/08 06:02:15;;;;;;;;;;;;;;;-0.62;59.14;100257.41;4440134;32;19977;-85
2022/03/08 06:04:40;;;;;;;;;;;;;;;-0.53;59.14;100259.28;4424938;32;20025;-85
2022/03/08 06:07:05;;;;;;;;;;;;;;;-0.60;59.13;100257.44;4439169;32;31127;-85
2022/03/08 06:09:31;;;;;;;;;;;;;;;-0.39;59.15;100250.22;4426021;32;20009;-85
2022/03/08 06:11:56;;;;;;;;;;;;;;;-0.41;59.15;100267.22;4413749;32;20025;-84
2022/03/08 06:14:21;;;;;;;;;;;;;;;-0.27;59.16;100262.38;4426460;32;19985;-85
2022/03/08 06:16:46;;;;;;;;;;;;;;;-0.10;59.17;100266.12;4426079;32;20033;-85
2022/03/08 06:19:12;;;;;;;;;;;;;;;-0.01;59.17;100263.72;4412619;32;20000;-85
2022/03/08 06:21:38;;;;;;;;;;;;;;;0.02;59.18;100261.25;4424852;32;35284;-85
2022/03/08 06:24:03;;;;;;;;;;;;;;;0.09;59.17;100254.53;4439650;32;20060;-85
2022/03/08 06:26:29;;;;;;;;;;;;;;;0.14;59.18;100261.47;4425242;32;20005;-84
2022/03/08 06:28:55;;;;;;;;;;;;;;;0.41;59.20;100260.22;4425506;32;20334;-85
2022/03/08 06:31:20;;;;;;;;;;;;;;;0.43;59.19;100261.97;4439583;32;20243;-85
2022/03/08 06:33:45;;;;;;;;;;;;;;;0.48;59.20;100260.38;4439150;32;20017;-85
2022/03/08 06:36:10;;;;;;;;;;;;;;;0.62;59.21;100258.00;4424837;32;20001;-85
2022/03/08 06:38:36;;;;;;;;;;;;;;;0.78;59.22;100265.09;4425271;32;19981;-86
2022/03/08 06:41:01;;;;;;;;;;;;;;;0.85;59.22;100263.50;4438491;32;20001;-85
2022/03/08 06:43:26;;;;;;;;;;;;;;;0.82;59.22;100264.31;4424874;32;19977;-84
2022/03/08 06:45:52;;;;;;;;;;;;;;;0.91;59.23;100268.72;4425272;32;20278;-85
2022/03/08 06:48:17;;;;;;;;;;;;;;;1.12;59.24;100266.47;4425193;32;20056;-86
2022/03/08 06:50:42;;;;;;;;;;;;;;;1.04;59.24;100273.19;4424293;32;20420;-86
2022/03/08 06:53:07;;;;;;;;;;;;;;;1.35;59.25;100268.47;4439043;32;20298;-84
2022/03/08 06:55:35;;;;;;;;;;;;;;;1.48;59.27;100275.50;4439355;32;19996;-85
2022/03/08 06:58:00;;;;;;;;;;;;;;;1.37;59.25;100265.09;4425377;32;20390;-85
2022/03/08 07:03:28;;;;;;;;;;;;;;;1.66;59.27;100267.19;4439200;32;20021;-85
2022/03/08 07:05:53;;;;;;;;;;;;;;;1.75;59.27;100273.28;4424974;32;19982;-85
2022/03/08 07:08:19;;;;;;;;;;;;;;;1.90;59.28;100279.44;4425083;32;19990;-86
2022/03/08 07:10:44;;;;;;;;;;;;;;;1.98;59.29;100270.97;4424917;32;19974;-86
2022/03/08 07:13:09;;;;;;;;;;;;;;;2.11;59.29;100277.94;4424791;32;20255;-85
2022/03/08 07:15:35;;;;;;;;;;;;;;;2.36;59.32;100273.91;4424704;32;20013;-86
2022/03/08 07:18:00;;;;;;;;;;;;;;;2.49;59.31;100272.34;4440418;32;20055;-86
2022/03/08 07:20:25;;;;;;;;;;;;;;;2.57;59.32;100273.25;4426993;32;20000;-85
2022/03/08 07:22:50;;;;;;;;;;;;;;;2.90;59.34;100276.97;4413954;32;20312;-87
2022/03/08 07:25:16;;;;;;;;;;;;;;;3.05;59.35;100270.19;4426334;32;20287;-87
2022/03/08 07:27:42;;;;;;;;;;;;;;;3.01;59.34;100272.75;4413947;32;19989;-87
2022/03/08 07:30:07;;;;;;;;;;;;;;;3.20;59.36;100271.16;4426937;32;20350;-87
2022/03/08 07:32:32;;;;;;;;;;;;;;;3.51;59.37;100274.75;4440943;32;20266;-85
2022/03/08 07:34:58;;;;;;;;;;;;;;;3.65;59.38;100268.84;4441119;32;19974;-86
2022/03/08 07:37:23;;;;;;;;;;;;;;;3.83;59.40;100269.75;4427021;32;19993;-86
2022/03/08 07:39:48;;;;;;;;;;;;;;;3.79;59.39;100268.03;4440924;32;19978;-86
2022/03/08 07:42:13;;;;;;;;;;;;;;;3.91;59.40;100268.94;4440837;32;19961;-86
2022/03/08 07:44:39;;;;;;;;;;;;;;;4.15;59.41;100264.69;4440356;32;20040;-86
2022/03/08 07:47:05;;;;;;;;;;;;;;;4.23;59.42;100262.97;4426821;32;19989;-86
2022/03/08 07:49:30;;;;;;;;;;;;;;;4.25;59.42;100262.12;4426238;32;21038;-87
2022/03/08 07:51:55;;;;;;;;;;;;;;;4.47;59.43;100259.56;4426676;32;20028;-86
2022/03/08 07:54:20;;;;;;;;;;;;;;;4.61;59.44;100260.47;4413509;32;21073;-86
2022/03/08 07:56:46;;;;;;;;;;;;;;;4.58;59.44;100261.31;4426567;32;20033;-86
2022/03/08 07:59:11;;;;;;;;;;;;;;;4.87;59.46;100263.87;4413914;32;19993;-86
2022/03/08 08:01:36;;;;;;;;;;;;;;;4.93;59.46;100261.28;4440727;32;19961;-86
2022/03/08 08:04:02;;;;;;;;;;;;;;;4.97;59.46;100263.87;4426603;32;19990;-85
2022/03/08 08:06:27;;;;;;;;;;;;;;;5.05;59.46;100252.69;4440662;32;20295;-86
2022/03/08 08:08:52;;;;;;;;;;;;;;;5.13;59.47;100257.84;4440643;32;20255;-87
2022/03/08 08:11:17;;;;;;;;;;;;;;;5.24;59.48;100262.12;4413823;32;20009;-86
2022/03/08 08:13:42;;;;;;;;;;;;;;;5.43;59.49;100250.00;4426424;32;20009;-86
2022/03/08 08:16:08;;;;;;;;;;;;;;;5.63;59.50;100249.09;4440569;32;19985;-86
2022/03/08 08:18:34;;;;;;;;;;;;;;;5.83;59.50;100252.44;4439983;32;25500;-86
2022/03/08 08:21:01;;;;;;;;;;;;;;;5.77;59.51;100253.34;4426477;32;19978;-86
2022/03/08 08:23:26;;;;;;;;;;;;;;;6.06;59.52;100245.47;4413983;32;19989;-86
2022/03/08 08:25:51;;;;;;;;;;;;;;;6.23;59.53;100252.25;4426423;32;20224;-86
2022/03/08 08:28:16;;;;;;;;;;;;;;;6.48;59.54;100246.06;4425453;32;20028;-86
2022/03/08 08:30:42;;;;;;;;;;;;;;;6.57;59.54;100239.94;4440471;32;19965;-86
2022/03/08 08:33:07;;;;;;;;;;;;;;;6.65;59.56;100241.63;4440524;32;20012;-86
2022/03/08 08:35:32;;;;;;;;;;;;;;;6.95;59.57;100237.91;4440205;32;20326;-86
2022/03/08 08:37:57;;;;;;;;;;;;;;;7.08;59.58;100239.47;4426317;32;20283;-85
2022/03/08 08:40:23;;;;;;;;;;;;;;;7.34;59.59;100238.38;4440409;32;19982;-85
2022/03/08 08:42:48;;;;;;;;;;;;;;;7.27;59.59;100234.09;4426473;32;20000;-85
2022/03/08 08:45:14;;;;;;;;;;;;;;;7.18;59.59;100237.66;4425855;32;19989;-86
2022/03/08 08:47:39;;;;;;;;;;;;;;;7.42;59.60;100225.31;4413638;32;19985;-86
2022/03/08 08:50:04;;;;;;;;;;;;;;;7.56;59.61;100229.44;4440389;32;19969;-86
2022/03/08 08:52:30;;;;;;;;;;;;;;;7.57;59.61;100223.41;4440363;32;20019;-86
2022/03/08 08:54:56;;;;;;;;;;;;;;;7.70;59.61;100217.19;4426095;32;20271;-85
2022/03/08 08:57:22;;;;;;;;;;;;;;;7.51;59.60;100227.78;4440176;32;20030;-86
2022/03/08 08:59:47;;;;;;;;;;;;;;;7.64;59.61;100226.78;4413385;32;20013;-87
2022/03/08 09:02:12;;;;;;;;;;;;;;;7.88;59.62;100223.00;4412933;32;24070;-87
2022/03/08 09:04:37;;;;;;;;;;;;;;;8.19;59.64;100213.91;4440012;32;20342;-86
2022/03/08 09:07:03;;;;;;;;;;;;;;;8.20;59.64;100215.62;4440237;32;20305;-86
2022/03/08 09:09:28;;;;;;;;;;;;;;;8.36;59.65;100207.66;4440245;32;19976;-87
2022/03/08 09:11:53;;;;;;;;;;;;;;;8.51;59.66;100208.25;4413387;32;20349;-86
2022/03/08 09:14:19;;;;;;;;;;;;;;;8.68;59.67;100207.13;4425765;32;20029;-86
2022/03/08 09:16:44;;;;;;;;;;;;;;;9.08;59.69;100207.28;4426012;32;20000;-86
2022/03/08 09:19:10;;;;;;;;;;;;;;;9.18;59.69;100201.00;4426180;32;19978;-85
2022/03/08 09:21:35;;;;;;;;;;;;;;;9.26;59.71;100193.94;4426198;32;20069;-86
2022/03/08 09:24:00;;;;;;;;;;;;;;;9.34;59.71;100192.06;4426006;32;20027;-86
2022/03/08 09:26:26;;;;;;;;;;;;;;;9.52;59.72;100189.09;4426001;32;20327;-86
2022/03/08 09:28:51;;;;;;;;;;;;;;;9.64;59.73;100197.50;4426036;32;19973;-86
2022/03/08 09:31:16;;;;;;;;;;;;;;;9.66;59.73;100195.72;4426129;32;19990;-86
2022/03/08 09:33:42;;;;;;;;;;;;;;;9.78;59.73;100198.06;4426042;32;20358;-85
2022/03/08 09:36:08;;;;;;;;;;;;;;;9.64;59.72;100193.16;4413425;32;20087;-86
2022/03/08 09:38:33;;;;;;;;;;;;;;;9.87;59.74;100190.06;4426160;32;20014;-86
2022/03/08 09:40:58;;;;;;;;;;;;;;;10.15;59.75;100193.75;4424060;32;23161;-86
2022/03/08 09:43:24;;;;;;;;;;;;;;;10.35;59.76;100193.31;4413237;32;19981;-86
2022/03/08 09:45:49;;;;;;;;;;;;;;;10.32;59.77;100195.12;4425850;32;19979;-86
2022/03/08 09:48:16;;;;;;;;;;;;;;;10.56;59.78;100188.47;4440004;32;20342;-87
2022/03/08 09:50:41;;;;;;;;;;;;;;;10.49;59.78;100193.00;4426078;32;19985;-86
2022/03/08 09:53:06;;;;;;;;;;;;;;;10.58;59.78;100189.28;4412497;32;26495;-86
2022/03/08 09:55:32;;;;;;;;;;;;;;;10.66;59.78;100195.19;4425869;32;19973;-86
2022/03/08 09:57:57;;;;;;;;;;;;;;;10.64;59.78;100199.53;4425247;32;26615;-86
2022/03/08 10:00:25;;;;;;;;;;;;;;;10.39;59.77;100194.94;4425766;32;19985;-86
2022/03/08 10:02:54;;;;;;;;;;;;;;;10.48;59.78;100193.03;4426297;32;19981;-86
2022/03/08 10:05:20;;;;;;;;;;;;;;;10.46;59.76;100200.88;4425712;32;19982;-86
2022/03/08 10:08:13;;;;;;;;;;;;;;;10.28;59.75;100198.72;4425812;32;19974;-87
2022/03/08 10:10:58;;;;;;;;;;;;;;;10.49;59.77;100198.19;4434887;32;20038;-86
2022/03/08 10:13:26;;;;;;;;;;;;;;;10.77;59.79;100191.41;4426535;32;19989;-86
2022/03/08 10:16:07;;;;;;;;;;;;;;;10.74;59.78;100201.03;4413245;32;20330;-85
2022/03/08 10:18:36;;;;;;;;;;;;;;;10.45;59.77;100199.16;4439985;32;19965;-85
2022/03/08 10:21:01;;;;;;;;;;;;;;;10.34;59.76;100211.56;4413150;32;20327;-86
2022/03/08 10:23:26;;;;;;;;;;;;;;;10.43;59.77;100208.75;4425900;32;20021;-86
2022/03/08 10:25:51;;;;;;;;;;;;;;;10.41;59.77;100198.38;4439079;32;32480;-85
2022/03/08 10:28:16;;;;;;;;;;;;;;;10.61;59.77;100204.84;4439880;32;20032;-86
2022/03/08 10:30:42;;;;;;;;;;;;;;;10.82;59.79;100211.25;4425626;32;19981;-86
2022/03/08 10:33:07;;;;;;;;;;;;;;;10.93;59.80;100207.50;4425494;32;20310;-86
2022/03/08 10:35:37;;;;;;;;;;;;;;;10.95;59.80;100204.84;4425324;32;19970;-86
2022/03/08 10:38:06;;;;;;;;;;;;;;;11.14;59.82;100200.84;4413083;32;20007;-86
2022/03/08 10:40:35;;;;;;;;;;;;;;;11.16;59.81;100193.84;4412499;32;20042;-86
2022/03/08 10:43:11;;;;;;;;;;;;;;;11.33;59.82;100189.00;4425966;32;20008;-86
2022/03/08 10:45:39;;;;;;;;;;;;;;;11.78;59.85;100178.19;4412658;32;20341;-86
2022/03/08 10:48:06;;;;;;;;;;;;;;;12.12;59.86;100183.22;4412562;32;19978;-86
2022/03/08 10:50:31;;;;;;;;;;;;;;;12.16;59.87;100178.75;4424997;32;20544;-86
2022/03/08 10:52:57;;;;;;;;;;;;;;;12.24;59.87;100182.81;4412207;32;20001;-87
2022/03/08 10:55:32;;;;;;;;;;;;;;;12.55;59.89;100181.84;4412429;32;19991;-87
2022/03/08 10:57:58;;;;;;;;;;;;;;;12.46;59.88;100169.09;4439232;32;20338;-86
2022/03/08 11:00:24;;;;;;;;;;;;;;;12.97;59.91;100163.00;4425083;32;20012;-86
2022/03/08 11:02:51;;;;;;;;;;;;;;;13.23;59.92;100164.69;4412367;32;20035;-86
2022/03/08 11:05:16;;;;;;;;;;;;;;;13.58;59.95;100166.88;4439154;32;20019;-87
2022/03/08 11:07:41;;;;;;;;;;;;;;;13.68;59.95;100157.75;4425030;32;19985;-87
2022/03/08 11:10:08;;;;;;;;;;;;;;;13.77;59.96;100159.19;4439193;32;20023;-87
2022/03/08 11:12:33;;;;;;;;;;;;;;;13.89;59.96;100160.47;4425305;32;19981;-86
2022/03/08 11:14:59;;;;;;;;;;;;;;;14.03;59.98;100163.41;4424900;32;20068;-87
2022/03/08 11:17:24;;;;;;;;;;;;;;;13.78;59.95;100153.91;4438853;32;19984;-86
2022/03/08 11:19:49;;;;;;;;;;;;;;;13.73;59.96;100157.62;4438956;32;20004;-87
2022/03/08 11:22:15;;;;;;;;;;;;;;;13.78;59.96;100158.28;4424766;32;19985;-86
2022/03/08 11:24:40;;;;;;;;;;;;;;;13.76;59.95;100153.09;4424749;32;19974;-86
2022/03/08 11:27:05;;;;;;;;;;;;;;;13.54;59.94;100154.84;4411266;32;28924;-86
2022/03/08 11:29:31;;;;;;;;;;;;;;;13.20;59.93;100156.06;4424357;32;20000;-86
2022/03/08 11:31:56;;;;;;;;;;;;;;;13.09;59.91;100157.34;4424259;32;20233;-86
2022/03/08 11:34:24;;;;;;;;;;;;;;;12.97;59.91;100152.53;4424759;32;19982;-86
2022/03/08 11:36:58;;;;;;;;;;;;;;;13.13;59.92;100154.56;4411909;32;20089;-87
2022/03/08 11:39:24;;;;;;;;;;;;;;;13.24;59.93;100153.34;4424854;32;19997;-86
2022/03/08 11:41:53;;;;;;;;;;;;;;;13.18;59.93;100139.59;4438528;32;20002;-86
2022/03/08 11:44:22;;;;;;;;;;;;;;;13.39;59.93;100142.31;4424568;32;19973;-86
2022/03/08 11:46:57;;;;;;;;;;;;;;;13.45;59.94;100144.69;4438546;32;19983;-86
2022/03/08 11:49:36;;;;;;;;;;;;;;;13.59;59.95;100134.59;4438553;32;20302;-86
2022/03/08 11:52:12;;;;;;;;;;;;;;;13.82;59.96;100131.09;4424597;32;20330;-86
2022/03/08 11:54:38;;;;;;;;;;;;;;;13.94;59.97;100122.72;4424291;32;20020;-87
2022/03/08 11:57:03;;;;;;;;;;;;;;;13.75;59.95;100132.25;4423299;32;38352;-87
2022/03/08 11:59:28;;;;;;;;;;;;;;;13.75;59.96;100132.25;4438453;32;19997;-86
2022/03/08 12:01:54;;;;;;;;;;;;;;;13.82;59.96;100131.94;4437682;32;29402;-86
2022/03/08 12:04:19;;;;;;;;;;;;;;;13.79;59.96;100120.75;4425634;32;19997;-87
2022/03/08 12:06:56;;;;;;;;;;;;;;;13.56;59.95;100112.94;4426647;32;20327;-86
2022/03/08 12:09:22;;;;;;;;;;;;;;;13.66;59.95;100115.13;4426903;32;19981;-86
2022/03/08 12:11:47;;;;;;;;;;;;;;;13.65;59.95;100116.03;4426838;32;19989;-86
2022/03/08 12:14:18;;;;;;;;;;;;;;;13.77;59.96;100119.94;4440558;32;19985;-87
2022/03/08 12:16:45;;;;;;;;;;;;;;;13.67;59.95;100121.19;4440709;32;19981;-86
2022/03/08 12:19:10;;;;;;;;;;;;;;;13.32;59.93;100110.34;4413646;32;19994;-87
2022/03/08 12:21:37;;;;;;;;;;;;;;;13.45;59.94;100111.56;4413683;32;20344;-86
2022/03/08 12:24:03;;;;;;;;;;;;;;;13.68;59.95;100109.81;4413734;32;20000;-87
2022/03/08 12:26:31;;;;;;;;;;;;;;;13.46;59.94;100108.03;4426504;32;19974;-86
2022/03/08 12:29:03;;;;;;;;;;;;;;;13.30;59.93;100125.22;4440664;32;19986;-86
2022/03/08 12:31:28;;;;;;;;;;;;;;;13.24;59.93;100111.50;4413704;32;20027;-87
2022/03/08 12:34:20;;;;;;;;;;;;;;;13.13;59.93;100117.12;4439724;32;31318;-87
2022/03/08 12:37:00;;;;;;;;;;;;;;;12.69;59.90;100116.06;4408560;32;20023;-87
2022/03/08 12:39:45;;;;;;;;;;;;;;;13.03;59.92;100115.75;4440742;32;20048;-86